Laramie, WY (82070)

4:20 PM MST on February 10, 2016 (GMT -0700)
North Laramie | | Change Station
CLOSE
Current Station
Personal Weather Station
Location: Laramie, WY
Elevation: 7221 ft
Nearby Weather Stations

Elev 7221 ft 41.33 °N, 105.57 °W | Updated 7 minutes ago

Clear
Clear
38.8 °F
Feels Like 36 °F
N
4.2
Wind Variable Wind from WNW

Today
High -- | Low -- °F
--% Chance of Precip.
Yesterday
High -- | Low -- °F
Precip. -- in
Pressure 30.12 in
Visibility 10.0 miles
Clouds Clear
Windchill 36 °F
Dew Point 22 °F
Humidity 50%
Rainfall 0.00 in
Snow Depth Not available.
7:04 AM 5:30 PM
Waxing Crescent, 8% visible
METAR KLAR 102253Z AUTO 29011KT 10SM CLR 05/M07 A3018 RMK AO2 PK WND 28026/2155 SLP197 T00501067
Pressure 30.12 in
Visibility 10.0 miles
Clouds Clear
Windchill 36 °F
Dew Point 22 °F
Humidity 50%
Rainfall 0.00 in
Snow Depth Not available.
7:04 AM 5:30 PM
Waxing Crescent, 8% visible
METAR KLAR 102253Z AUTO 29011KT 10SM CLR 05/M07 A3018 RMK AO2 PK WND 28026/2155 SLP197 T00501067

10-Day Weather Forecast

Almanac

Astronomy

Feb. 10, 2016 Rise Set
Actual Time
Civil Twilight
Nautical Twilight
Astronomical Twilight
Moon
Length of Visible Light
Length of Day
Tomorrow will be .
, % of the Moon is Illuminated

Today's Extremes

State Highs State Lows

Community

WunderPhotos

Upload Photos

1,891,933 photos uploaded!

WunderBlog® & News

Nearby

Air Quality

  Air Quality AQ Index Pollutant
Not available.

Snow Depth

Station Depth Elevation

Earthquake Activity

City Distance Mag. Time & Date
Minimum magnitude displayed is 2.5.

Coastal Water Temperatures

Place Temperature

Stations

Nearby Weather Stations

Station Location Temp. Windchill Dew Point Humidity Wind Precip. Elev Updated Type
                   

Watches & Warnings

There are currently no watches in effect.